createdAt,value
2022-08-14T00:00:00.264Z,18.30
2022-08-14T00:04:01.951Z,18.30
2022-08-14T00:08:45.098Z,18.20
2022-08-14T00:12:56.813Z,18.30
2022-08-14T00:16:58.976Z,18.30
2022-08-14T00:21:03.468Z,18.20
2022-08-14T00:25:07.291Z,18.20
2022-08-14T00:29:09.027Z,18.10
2022-08-14T00:33:15.151Z,18.00
2022-08-14T00:37:17.703Z,18.00
2022-08-14T00:41:19.458Z,18.00
2022-08-14T00:45:22.165Z,18.00
2022-08-14T00:49:23.891Z,18.00
2022-08-14T00:53:26.391Z,17.90
2022-08-14T00:57:34.002Z,17.70
2022-08-14T01:01:38.964Z,17.60
2022-08-14T01:05:51.601Z,17.50
2022-08-14T01:09:58.683Z,17.40
2022-08-14T01:14:01.578Z,17.30
2022-08-14T01:18:40.216Z,17.20
2022-08-14T01:22:42.984Z,17.10
2022-08-14T01:26:50.701Z,17.00
2022-08-14T01:30:57.524Z,17.00
2022-08-14T01:35:17.957Z,16.90
2022-08-14T01:39:21.219Z,16.90
2022-08-14T01:43:27.134Z,16.90
2022-08-14T01:47:33.568Z,16.90
2022-08-14T01:51:43.549Z,16.90
2022-08-14T01:55:45.310Z,16.90
2022-08-14T01:59:50.170Z,16.90
2022-08-14T02:03:53.451Z,17.00
2022-08-14T02:08:09.554Z,17.10
2022-08-14T02:12:26.609Z,17.10
2022-08-14T02:16:38.848Z,17.30
2022-08-14T02:20:40.563Z,17.40
2022-08-14T02:24:45.128Z,17.50
2022-08-14T02:29:00.579Z,17.60
2022-08-14T02:33:05.727Z,17.70
2022-08-14T02:37:17.979Z,17.60
2022-08-14T02:41:19.976Z,17.70
2022-08-14T02:45:22.162Z,17.60
2022-08-14T02:49:33.110Z,17.70
2022-08-14T02:53:39.710Z,17.60
2022-08-14T02:57:44.099Z,17.60
2022-08-14T03:01:51.219Z,17.50
2022-08-14T03:05:56.704Z,17.30
2022-08-14T03:10:27.588Z,17.10
2022-08-14T03:14:25.624Z,16.90
2022-08-14T03:18:31.182Z,16.80
2022-08-14T03:22:34.674Z,16.80
2022-08-14T03:26:38.087Z,16.70
2022-08-14T03:30:41.619Z,16.60
2022-08-14T03:34:48.444Z,16.50
2022-08-14T03:39:15.691Z,16.50
2022-08-14T03:43:21.207Z,16.50
2022-08-14T03:47:23.264Z,16.50
2022-08-14T03:51:45.559Z,16.30
2022-08-14T03:55:48.835Z,16.30
2022-08-14T03:59:54.171Z,16.20
2022-08-14T04:04:06.276Z,16.10
2022-08-14T04:08:28.956Z,16.00
2022-08-14T04:12:31.956Z,15.90
2022-08-14T04:16:34.354Z,15.80
2022-08-14T04:20:40.762Z,15.80
2022-08-14T04:24:53.443Z,15.80
2022-08-14T04:29:06.767Z,15.80
2022-08-14T04:33:20.472Z,15.80
2022-08-14T04:37:45.010Z,15.80
2022-08-14T04:42:09.245Z,15.70
2022-08-14T04:46:57.444Z,15.70
2022-08-14T04:50:53.863Z,15.70
2022-08-14T04:54:56.303Z,15.60
2022-08-14T04:59:02.202Z,15.70
2022-08-14T05:03:07.494Z,15.80
2022-08-14T05:07:09.353Z,16.00
2022-08-14T05:11:13.407Z,16.30
2022-08-14T05:15:15.662Z,16.40
2022-08-14T05:19:27.390Z,16.50
2022-08-14T05:23:33.796Z,16.50
2022-08-14T05:27:36.627Z,16.50
2022-08-14T05:31:40.533Z,16.60
2022-08-14T05:35:44.240Z,16.60
2022-08-14T05:39:48.428Z,16.70
2022-08-14T05:43:51.071Z,16.80
2022-08-14T05:47:53.217Z,16.90
2022-08-14T05:51:55.397Z,17.00
2022-08-14T05:56:00.312Z,17.10
2022-08-14T06:00:01.987Z,17.20
2022-08-14T06:04:04.606Z,17.30
2022-08-14T06:08:36.270Z,17.60
2022-08-14T06:12:56.446Z,17.80
2022-08-14T06:16:58.922Z,18.10
2022-08-14T06:21:02.378Z,18.50
2022-08-14T06:25:04.638Z,18.70
2022-08-14T06:29:07.431Z,18.90
2022-08-14T06:33:09.195Z,19.20
2022-08-14T06:37:10.992Z,19.50
2022-08-14T06:41:13.249Z,19.60
2022-08-14T06:45:26.467Z,20.00
2022-08-14T06:49:30.172Z,20.30
2022-08-14T06:53:32.401Z,20.60
2022-08-14T06:57:42.260Z,20.80
2022-08-14T07:02:02.777Z,21.00
2022-08-14T07:06:11.651Z,21.20
2022-08-14T07:10:24.984Z,21.60
2022-08-14T07:14:27.248Z,21.70
2022-08-14T07:18:31.318Z,22.00
2022-08-14T07:22:49.903Z,22.20
2022-08-14T07:26:54.656Z,22.40
2022-08-14T07:31:04.716Z,22.60
2022-08-14T07:35:07.706Z,22.70
2022-08-14T07:39:12.423Z,22.80
2022-08-14T07:43:15.274Z,23.00
2022-08-14T07:47:18.043Z,23.00
2022-08-14T07:51:20.229Z,23.40
2022-08-14T07:55:22.049Z,23.50
2022-08-14T07:59:40.527Z,23.80
2022-08-14T08:03:49.644Z,23.80
2022-08-14T08:07:55.981Z,23.80
2022-08-14T08:11:58.271Z,24.10
2022-08-14T08:16:00.054Z,24.30
2022-08-14T08:20:02.731Z,24.60
2022-08-14T08:24:04.586Z,24.70
2022-08-14T08:28:31.343Z,25.10
2022-08-14T08:32:43.650Z,25.30
2022-08-14T08:36:46.558Z,25.40
2022-08-14T08:40:50.223Z,25.60
2022-08-14T08:44:55.475Z,25.80
2022-08-14T08:53:06.197Z,26.90
2022-08-14T08:57:12.708Z,27.80
2022-08-14T09:01:29.402Z,28.70
2022-08-14T09:05:34.341Z,29.80
2022-08-14T09:09:53.505Z,30.80
2022-08-14T09:14:00.371Z,31.30
2022-08-14T09:18:02.152Z,32.00
2022-08-14T09:22:35.962Z,32.40
2022-08-14T09:26:28.555Z,33.20
2022-08-14T09:30:33.909Z,33.20
2022-08-14T09:34:47.417Z,32.40
2022-08-14T09:39:06.547Z,30.70
2022-08-14T09:43:43.591Z,31.80
2022-08-14T09:47:54.370Z,32.10
2022-08-14T09:52:05.319Z,32.10
2022-08-14T09:56:30.721Z,32.80
2022-08-14T10:01:01.527Z,33.40
2022-08-14T10:05:03.127Z,32.80
2022-08-14T10:09:06.522Z,31.60
2022-08-14T10:13:25.206Z,31.10
2022-08-14T10:17:33.059Z,32.10
2022-08-14T10:23:11.070Z,32.00
2022-08-14T10:26:09.391Z,32.30
2022-08-14T10:30:22.660Z,32.50
2022-08-14T10:34:40.981Z,33.50
2022-08-14T10:38:42.793Z,31.40
2022-08-14T10:42:52.270Z,32.20
2022-08-14T10:47:39.643Z,32.80
2022-08-14T10:51:26.292Z,32.30
2022-08-14T10:55:45.608Z,32.60
2022-08-14T10:59:59.694Z,32.20
2022-08-14T11:04:02.328Z,32.10
2022-08-14T11:08:09.175Z,32.40
2022-08-14T11:12:39.988Z,32.60
2022-08-14T11:16:40.871Z,32.20
2022-08-14T11:20:54.460Z,32.60
2022-08-14T11:25:04.187Z,31.90
2022-08-14T11:29:10.592Z,31.90
2022-08-14T11:33:12.840Z,32.00
2022-08-14T11:37:19.035Z,32.10
2022-08-14T11:41:28.685Z,31.10
2022-08-14T11:45:34.250Z,31.00
2022-08-14T11:49:40.230Z,31.20
2022-08-14T11:53:43.504Z,30.90
2022-08-14T11:57:59.757Z,30.80
2022-08-14T12:03:00.491Z,30.80
2022-08-14T12:06:55.746Z,31.00
2022-08-14T12:10:58.527Z,31.30
2022-08-14T12:15:00.999Z,30.70
2022-08-14T12:19:02.776Z,30.90
2022-08-14T12:23:07.437Z,30.90
2022-08-14T12:27:13.102Z,31.00
2022-08-14T12:31:20.602Z,31.00
2022-08-14T12:35:25.546Z,31.00
2022-08-14T12:39:27.238Z,31.00
2022-08-14T12:43:29.323Z,30.60
2022-08-14T12:47:31.702Z,30.60
2022-08-14T12:51:35.451Z,30.70
2022-08-14T12:56:22.388Z,30.80
2022-08-14T13:00:26.521Z,30.70
2022-08-14T13:04:31.116Z,31.00
2022-08-14T13:08:34.310Z,30.80
2022-08-14T13:12:51.249Z,31.10
2022-08-14T13:17:04.102Z,31.50
2022-08-14T13:21:07.199Z,31.50
2022-08-14T13:25:20.289Z,31.80
2022-08-14T13:29:26.430Z,31.90
2022-08-14T13:33:32.881Z,32.00
2022-08-14T13:37:34.951Z,32.10
2022-08-14T13:41:37.771Z,32.60
2022-08-14T13:46:00.362Z,32.90
2022-08-14T13:50:04.977Z,33.00
2022-08-14T13:54:10.483Z,32.70
2022-08-14T13:58:34.007Z,32.40
2022-08-14T14:02:47.741Z,32.20
2022-08-14T14:06:51.933Z,31.30
2022-08-14T14:10:55.843Z,31.60
2022-08-14T14:15:05.149Z,31.50
2022-08-14T14:19:09.687Z,31.50
2022-08-14T14:23:17.590Z,31.60
2022-08-14T14:31:43.023Z,31.60
2022-08-14T14:35:45.810Z,31.80
2022-08-14T14:40:54.819Z,32.00
2022-08-14T14:44:15.787Z,32.30
2022-08-14T14:48:19.495Z,32.70
2022-08-14T14:52:27.203Z,32.50
2022-08-14T14:56:48.378Z,32.30
2022-08-14T15:00:59.879Z,31.10
2022-08-14T15:05:02.036Z,30.90
2022-08-14T15:09:05.004Z,30.50
2022-08-14T15:13:10.788Z,30.40
2022-08-14T15:17:12.832Z,30.10
2022-08-14T15:21:14.943Z,29.80
2022-08-14T15:25:18.572Z,29.80
2022-08-14T15:29:43.354Z,29.70
2022-08-14T15:34:40.936Z,29.50
2022-08-14T15:38:25.982Z,29.30
2022-08-14T15:42:32.414Z,29.50
2022-08-14T15:46:43.059Z,29.70
2022-08-14T15:50:47.436Z,29.60
2022-08-14T15:54:52.607Z,29.50
2022-08-14T15:58:54.785Z,29.50
2022-08-14T16:02:56.533Z,29.40
2022-08-14T16:06:58.245Z,29.60
2022-08-14T16:11:03.165Z,29.60
2022-08-14T16:15:05.375Z,29.50
2022-08-14T16:19:11.776Z,29.50
2022-08-14T16:23:18.196Z,29.50
2022-08-14T16:27:23.619Z,29.70
2022-08-14T16:31:43.833Z,29.80
2022-08-14T16:35:59.476Z,29.90
2022-08-14T16:40:02.656Z,29.90
2022-08-14T16:44:21.577Z,29.80
2022-08-14T16:48:54.727Z,30.10
2022-08-14T16:52:55.822Z,29.90
2022-08-14T16:57:23.550Z,30.00
2022-08-14T17:01:25.342Z,29.80
2022-08-14T17:05:29.361Z,29.80
2022-08-14T17:09:43.531Z,29.80
2022-08-14T17:13:58.008Z,29.80
2022-08-14T17:18:02.841Z,29.80
2022-08-14T17:22:09.148Z,29.80
2022-08-14T17:26:33.841Z,30.00
2022-08-14T17:30:56.738Z,29.80
2022-08-14T17:35:01.624Z,29.70
2022-08-14T17:39:17.122Z,29.50
2022-08-14T17:43:19.808Z,29.30
2022-08-14T17:47:26.703Z,29.20
2022-08-14T17:51:30.241Z,29.00
2022-08-14T17:56:02.171Z,28.90
2022-08-14T17:59:55.841Z,28.70
2022-08-14T18:04:05.621Z,28.50
2022-08-14T18:08:33.942Z,28.40
2022-08-14T18:12:43.929Z,28.20
2022-08-14T18:16:46.683Z,28.00
2022-08-14T18:21:24.222Z,27.80
2022-08-14T18:25:19.264Z,27.70
2022-08-14T18:29:25.215Z,27.40
2022-08-14T18:33:35.394Z,27.30
2022-08-14T18:37:55.978Z,26.90
2022-08-14T18:42:23.579Z,26.60
2022-08-14T18:46:59.684Z,26.30
2022-08-14T18:50:48.725Z,26.00
2022-08-14T18:54:59.618Z,25.80
2022-08-14T18:59:01.675Z,25.60
2022-08-14T19:03:06.916Z,25.50
2022-08-14T19:07:18.665Z,25.30
2022-08-14T19:11:34.193Z,25.10
2022-08-14T19:15:38.394Z,24.80
2022-08-14T19:19:40.189Z,24.50
2022-08-14T19:24:27.812Z,24.30
2022-08-14T19:28:43.467Z,24.10
2022-08-14T19:32:45.211Z,23.90
2022-08-14T19:37:05.964Z,23.80
2022-08-14T19:41:16.625Z,23.70
2022-08-14T19:45:18.670Z,23.60
2022-08-14T19:50:09.007Z,23.50
2022-08-14T19:53:58.935Z,23.30
2022-08-14T19:58:01.389Z,23.20
2022-08-14T20:02:03.622Z,23.10
2022-08-14T20:06:08.795Z,22.90
2022-08-14T20:11:12.482Z,22.80
2022-08-14T20:15:04.326Z,22.60
2022-08-14T20:19:17.426Z,22.50
2022-08-14T20:23:20.094Z,22.50
2022-08-14T20:27:33.702Z,22.40
2022-08-14T20:31:38.429Z,22.30
2022-08-14T20:35:52.061Z,22.30
2022-08-14T20:39:55.799Z,22.30
2022-08-14T20:44:20.808Z,22.20
2022-08-14T20:48:51.386Z,22.20
2022-08-14T20:52:49.232Z,22.20
2022-08-14T20:56:53.374Z,22.10
2022-08-14T21:01:00.489Z,22.00
2022-08-14T21:05:16.812Z,22.00
2022-08-14T21:10:03.181Z,22.00
2022-08-14T21:14:19.986Z,21.90
2022-08-14T21:18:13.270Z,21.80
2022-08-14T21:22:18.591Z,21.80
2022-08-14T21:26:50.484Z,21.70
2022-08-14T21:30:51.756Z,21.60
2022-08-14T21:34:55.207Z,21.50
2022-08-14T21:38:59.008Z,21.60
2022-08-14T21:43:01.031Z,21.50
2022-08-14T21:47:03.797Z,21.50
2022-08-14T21:51:55.305Z,21.40
2022-08-14T21:55:27.545Z,21.20
2022-08-14T21:59:34.354Z,21.20
2022-08-14T22:03:39.607Z,21.20
2022-08-14T22:07:47.301Z,21.10
2022-08-14T22:11:56.753Z,21.00
2022-08-14T22:15:59.560Z,20.90
2022-08-14T22:20:06.964Z,20.80
2022-08-14T22:24:10.761Z,20.60
2022-08-14T22:28:27.503Z,20.50
2022-08-14T22:32:57.620Z,20.40
2022-08-14T22:36:57.007Z,20.30
2022-08-14T22:41:25.551Z,20.20
2022-08-14T22:45:20.421Z,20.10
2022-08-14T22:50:28.736Z,20.00
2022-08-14T22:53:52.317Z,19.90
2022-08-14T22:57:54.325Z,19.80
2022-08-14T23:02:05.043Z,19.70
2022-08-14T23:07:02.808Z,19.60
2022-08-14T23:10:35.922Z,19.50
2022-08-14T23:14:38.772Z,19.30
2022-08-14T23:18:43.229Z,19.20
2022-08-14T23:22:46.577Z,19.20
2022-08-14T23:26:53.741Z,19.10
2022-08-14T23:30:55.655Z,19.10
2022-08-14T23:34:58.503Z,19.10
2022-08-14T23:39:00.497Z,19.10
2022-08-14T23:43:08.002Z,19.10
2022-08-14T23:47:26.152Z,19.10
2022-08-14T23:51:28.883Z,19.10
2022-08-14T23:55:42.030Z,19.10
2022-08-14T23:59:45.139Z,19.10
